sensor_id;sensor_type;location;lat;lon;timestamp;P1;durP1;ratioP1;P2;durP2;ratioP2
57249;SDS011;43102;52.014;-0.680;2023-03-11T00:00:00;7.60;;;4.30;;
57249;SDS011;43102;52.014;-0.680;2023-03-11T00:01:00;7.60;;;4.30;;
57249;SDS011;43102;52.014;-0.680;2023-03-11T00:02:00;7.60;;;4.30;;
57249;SDS011;43102;52.014;-0.680;2023-03-11T00:03:02;7.60;;;4.30;;
57249;SDS011;43102;52.014;-0.680;2023-03-11T00:04:00;7.60;;;4.30;;
57249;SDS011;43102;52.014;-0.680;2023-03-11T00:05:00;7.60;;;4.30;;
57249;SDS011;43102;52.014;-0.680;2023-03-11T00:06:01;7.60;;;4.30;;
57249;SDS011;43102;52.014;-0.680;2023-03-11T00:07:00;7.60;;;4.30;;
57249;SDS011;43102;52.014;-0.680;2023-03-11T00:08:01;7.60;;;4.30;;
57249;SDS011;43102;52.014;-0.680;2023-03-11T00:09:00;7.60;;;4.30;;
57249;SDS011;43102;52.014;-0.680;2023-03-11T00:10:00;7.60;;;4.30;;
57249;SDS011;43102;52.014;-0.680;2023-03-11T00:11:00;7.60;;;4.30;;
57249;SDS011;43102;52.014;-0.680;2023-03-11T00:12:00;7.60;;;4.30;;
57249;SDS011;43102;52.014;-0.680;2023-03-11T00:13:00;7.60;;;4.30;;
57249;SDS011;43102;52.014;-0.680;2023-03-11T00:14:00;7.60;;;4.30;;
57249;SDS011;43102;52.014;-0.680;2023-03-11T00:15:00;7.60;;;4.30;;
57249;SDS011;43102;52.014;-0.680;2023-03-11T00:16:00;7.60;;;4.30;;
57249;SDS011;43102;52.014;-0.680;2023-03-11T00:17:00;7.60;;;4.30;;
57249;SDS011;43102;52.014;-0.680;2023-03-11T00:18:01;7.60;;;4.30;;
57249;SDS011;43102;52.014;-0.680;2023-03-11T00:19:00;7.60;;;4.30;;
57249;SDS011;43102;52.014;-0.680;2023-03-11T00:20:00;7.60;;;4.30;;
57249;SDS011;43102;52.014;-0.680;2023-03-11T00:21:01;6.10;;;3.90;;
57249;SDS011;43102;52.014;-0.680;2023-03-11T00:22:01;6.10;;;3.90;;
57249;SDS011;43102;52.014;-0.680;2023-03-11T00:23:01;6.10;;;3.90;;
57249;SDS011;43102;52.014;-0.680;2023-03-11T00:24:02;6.10;;;3.90;;
57249;SDS011;43102;52.014;-0.680;2023-03-11T00:25:00;6.10;;;3.90;;
57249;SDS011;43102;52.014;-0.680;2023-03-11T00:26:02;6.10;;;3.90;;
57249;SDS011;43102;52.014;-0.680;2023-03-11T00:27:00;6.10;;;3.90;;
57249;SDS011;43102;52.014;-0.680;2023-03-11T00:28:00;6.10;;;3.90;;
57249;SDS011;43102;52.014;-0.680;2023-03-11T00:29:00;6.10;;;3.90;;
57249;SDS011;43102;52.014;-0.680;2023-03-11T00:30:00;6.10;;;3.90;;
57249;SDS011;43102;52.014;-0.680;2023-03-11T00:31:01;6.10;;;3.90;;
57249;SDS011;43102;52.014;-0.680;2023-03-11T00:32:00;6.10;;;3.90;;
57249;SDS011;43102;52.014;-0.680;2023-03-11T00:33:00;6.10;;;3.90;;
57249;SDS011;43102;52.014;-0.680;2023-03-11T00:34:00;6.10;;;3.90;;
57249;SDS011;43102;52.014;-0.680;2023-03-11T00:35:00;6.10;;;3.90;;
57249;SDS011;43102;52.014;-0.680;2023-03-11T00:36:00;6.10;;;3.90;;
57249;SDS011;43102;52.014;-0.680;2023-03-11T00:37:00;6.10;;;3.90;;
57249;SDS011;43102;52.014;-0.680;2023-03-11T00:38:04;6.10;;;3.90;;
57249;SDS011;43102;52.014;-0.680;2023-03-11T00:39:05;6.10;;;3.90;;
57249;SDS011;43102;52.014;-0.680;2023-03-11T00:40:00;6.10;;;3.90;;
57249;SDS011;43102;52.014;-0.680;2023-03-11T00:41:00;6.10;;;3.90;;
57249;SDS011;43102;52.014;-0.680;2023-03-11T00:42:00;6.10;;;3.90;;
57249;SDS011;43102;52.014;-0.680;2023-03-11T00:43:01;6.10;;;3.90;;
57249;SDS011;43102;52.014;-0.680;2023-03-11T00:44:00;6.10;;;3.90;;
57249;SDS011;43102;52.014;-0.680;2023-03-11T00:45:00;6.10;;;3.90;;
57249;SDS011;43102;52.014;-0.680;2023-03-11T00:46:00;6.10;;;3.90;;
57249;SDS011;43102;52.014;-0.680;2023-03-11T00:47:00;6.10;;;3.90;;
57249;SDS011;43102;52.014;-0.680;2023-03-11T00:48:00;6.10;;;3.90;;
57249;SDS011;43102;52.014;-0.680;2023-03-11T00:49:00;6.10;;;3.90;;
57249;SDS011;43102;52.014;-0.680;2023-03-11T00:50:00;6.10;;;3.90;;
57249;SDS011;43102;52.014;-0.680;2023-03-11T00:51:00;6.70;;;4.50;;
57249;SDS011;43102;52.014;-0.680;2023-03-11T00:52:00;6.70;;;4.50;;
57249;SDS011;43102;52.014;-0.680;2023-03-11T00:53:01;6.70;;;4.50;;
57249;SDS011;43102;52.014;-0.680;2023-03-11T00:54:00;6.70;;;4.50;;
57249;SDS011;43102;52.014;-0.680;2023-03-11T00:55:00;6.70;;;4.50;;
57249;SDS011;43102;52.014;-0.680;2023-03-11T00:56:05;6.70;;;4.50;;
57249;SDS011;43102;52.014;-0.680;2023-03-11T00:57:00;6.70;;;4.50;;
57249;SDS011;43102;52.014;-0.680;2023-03-11T00:58:03;6.70;;;4.50;;
57249;SDS011;43102;52.014;-0.680;2023-03-11T00:59:00;6.70;;;4.50;;
57249;SDS011;43102;52.014;-0.680;2023-03-11T01:00:00;6.70;;;4.50;;
57249;SDS011;43102;52.014;-0.680;2023-03-11T01:01:09;6.70;;;4.50;;
57249;SDS011;43102;52.014;-0.680;2023-03-11T01:02:00;6.70;;;4.50;;
57249;SDS011;43102;52.014;-0.680;2023-03-11T01:03:00;6.70;;;4.50;;
57249;SDS011;43102;52.014;-0.680;2023-03-11T01:04:00;6.70;;;4.50;;
57249;SDS011;43102;52.014;-0.680;2023-03-11T01:05:00;6.70;;;4.50;;
57249;SDS011;43102;52.014;-0.680;2023-03-11T01:06:00;6.70;;;4.50;;
57249;SDS011;43102;52.014;-0.680;2023-03-11T01:07:00;6.70;;;4.50;;
57249;SDS011;43102;52.014;-0.680;2023-03-11T01:08:01;6.70;;;4.50;;
57249;SDS011;43102;52.014;-0.680;2023-03-11T01:09:00;6.70;;;4.50;;
57249;SDS011;43102;52.014;-0.680;2023-03-11T01:10:01;6.70;;;4.50;;
57249;SDS011;43102;52.014;-0.680;2023-03-11T01:11:00;6.70;;;4.50;;
57249;SDS011;43102;52.014;-0.680;2023-03-11T01:12:00;6.70;;;4.50;;
57249;SDS011;43102;52.014;-0.680;2023-03-11T01:13:00;6.70;;;4.50;;
57249;SDS011;43102;52.014;-0.680;2023-03-11T01:14:00;6.70;;;4.50;;
57249;SDS011;43102;52.014;-0.680;2023-03-11T01:15:01;6.70;;;4.50;;
57249;SDS011;43102;52.014;-0.680;2023-03-11T01:16:01;6.70;;;4.50;;
57249;SDS011;43102;52.014;-0.680;2023-03-11T01:17:00;6.70;;;4.50;;
57249;SDS011;43102;52.014;-0.680;2023-03-11T01:18:01;6.70;;;4.50;;
57249;SDS011;43102;52.014;-0.680;2023-03-11T01:19:00;6.70;;;4.50;;
57249;SDS011;43102;52.014;-0.680;2023-03-11T01:20:00;6.70;;;4.50;;
57249;SDS011;43102;52.014;-0.680;2023-03-11T01:21:00;7.30;;;5.20;;
57249;SDS011;43102;52.014;-0.680;2023-03-11T01:22:00;7.30;;;5.20;;
57249;SDS011;43102;52.014;-0.680;2023-03-11T01:23:00;7.30;;;5.20;;
57249;SDS011;43102;52.014;-0.680;2023-03-11T01:24:00;7.30;;;5.20;;
57249;SDS011;43102;52.014;-0.680;2023-03-11T01:25:00;7.30;;;5.20;;
57249;SDS011;43102;52.014;-0.680;2023-03-11T01:26:00;7.30;;;5.20;;
57249;SDS011;43102;52.014;-0.680;2023-03-11T01:27:00;7.30;;;5.20;;
57249;SDS011;43102;52.014;-0.680;2023-03-11T01:28:00;7.30;;;5.20;;
57249;SDS011;43102;52.014;-0.680;2023-03-11T01:29:00;7.30;;;5.20;;
57249;SDS011;43102;52.014;-0.680;2023-03-11T01:30:01;7.30;;;5.20;;
57249;SDS011;43102;52.014;-0.680;2023-03-11T01:31:00;7.30;;;5.20;;
57249;SDS011;43102;52.014;-0.680;2023-03-11T01:32:00;7.30;;;5.20;;
57249;SDS011;43102;52.014;-0.680;2023-03-11T01:33:01;7.30;;;5.20;;
57249;SDS011;43102;52.014;-0.680;2023-03-11T01:34:00;7.30;;;5.20;;
57249;SDS011;43102;52.014;-0.680;2023-03-11T01:35:00;7.30;;;5.20;;
57249;SDS011;43102;52.014;-0.680;2023-03-11T01:36:00;7.30;;;5.20;;
57249;SDS011;43102;52.014;-0.680;2023-03-11T01:37:01;7.30;;;5.20;;
57249;SDS011;43102;52.014;-0.680;2023-03-11T01:38:00;7.30;;;5.20;;
57249;SDS011;43102;52.014;-0.680;2023-03-11T01:39:00;7.30;;;5.20;;
57249;SDS011;43102;52.014;-0.680;2023-03-11T01:40:00;7.30;;;5.20;;
57249;SDS011;43102;52.014;-0.680;2023-03-11T01:41:00;7.30;;;5.20;;
57249;SDS011;43102;52.014;-0.680;2023-03-11T01:42:00;7.30;;;5.20;;
57249;SDS011;43102;52.014;-0.680;2023-03-11T01:43:02;7.30;;;5.20;;
57249;SDS011;43102;52.014;-0.680;2023-03-11T01:44:00;7.30;;;5.20;;
57249;SDS011;43102;52.014;-0.680;2023-03-11T01:45:00;7.30;;;5.20;;
57249;SDS011;43102;52.014;-0.680;2023-03-11T01:46:04;7.30;;;5.20;;
57249;SDS011;43102;52.014;-0.680;2023-03-11T01:48:00;7.30;;;5.20;;
57249;SDS011;43102;52.014;-0.680;2023-03-11T01:49:02;7.30;;;5.20;;
57249;SDS011;43102;52.014;-0.680;2023-03-11T01:50:01;7.30;;;5.20;;
57249;SDS011;43102;52.014;-0.680;2023-03-11T01:51:00;8.50;;;5.20;;
57249;SDS011;43102;52.014;-0.680;2023-03-11T01:52:03;8.50;;;5.20;;
57249;SDS011;43102;52.014;-0.680;2023-03-11T01:53:01;8.50;;;5.20;;
57249;SDS011;43102;52.014;-0.680;2023-03-11T01:54:04;8.50;;;5.20;;
57249;SDS011;43102;52.014;-0.680;2023-03-11T01:55:00;8.50;;;5.20;;
57249;SDS011;43102;52.014;-0.680;2023-03-11T01:56:02;8.50;;;5.20;;
57249;SDS011;43102;52.014;-0.680;2023-03-11T01:57:04;8.50;;;5.20;;
57249;SDS011;43102;52.014;-0.680;2023-03-11T01:58:06;8.50;;;5.20;;
57249;SDS011;43102;52.014;-0.680;2023-03-11T01:59:00;8.50;;;5.20;;
57249;SDS011;43102;52.014;-0.680;2023-03-11T02:00:04;8.50;;;5.20;;
57249;SDS011;43102;52.014;-0.680;2023-03-11T02:01:01;8.50;;;5.20;;
57249;SDS011;43102;52.014;-0.680;2023-03-11T02:02:09;8.50;;;5.20;;
57249;SDS011;43102;52.014;-0.680;2023-03-11T02:03:05;8.50;;;5.20;;
57249;SDS011;43102;52.014;-0.680;2023-03-11T02:04:02;8.50;;;5.20;;
57249;SDS011;43102;52.014;-0.680;2023-03-11T02:05:01;8.50;;;5.20;;
57249;SDS011;43102;52.014;-0.680;2023-03-11T02:06:03;8.50;;;5.20;;
57249;SDS011;43102;52.014;-0.680;2023-03-11T02:07:01;8.50;;;5.20;;
57249;SDS011;43102;52.014;-0.680;2023-03-11T02:08:01;8.50;;;5.20;;
57249;SDS011;43102;52.014;-0.680;2023-03-11T02:09:00;8.50;;;5.20;;
57249;SDS011;43102;52.014;-0.680;2023-03-11T02:10:01;8.50;;;5.20;;
57249;SDS011;43102;52.014;-0.680;2023-03-11T02:11:04;8.50;;;5.20;;
57249;SDS011;43102;52.014;-0.680;2023-03-11T02:12:01;8.50;;;5.20;;
57249;SDS011;43102;52.014;-0.680;2023-03-11T02:13:01;8.50;;;5.20;;
57249;SDS011;43102;52.014;-0.680;2023-03-11T02:14:02;8.50;;;5.20;;
57249;SDS011;43102;52.014;-0.680;2023-03-11T02:15:01;8.50;;;5.20;;
57249;SDS011;43102;52.014;-0.680;2023-03-11T02:16:02;8.50;;;5.20;;
57249;SDS011;43102;52.014;-0.680;2023-03-11T02:17:00;8.50;;;5.20;;
57249;SDS011;43102;52.014;-0.680;2023-03-11T02:18:02;8.50;;;5.20;;
57249;SDS011;43102;52.014;-0.680;2023-03-11T02:19:09;8.50;;;5.20;;
57249;SDS011;43102;52.014;-0.680;2023-03-11T02:21:26;7.60;;;5.00;;
57249;SDS011;43102;52.014;-0.680;2023-03-11T02:22:01;7.60;;;5.00;;
57249;SDS011;43102;52.014;-0.680;2023-03-11T02:23:00;7.60;;;5.00;;
57249;SDS011;43102;52.014;-0.680;2023-03-11T02:25:13;7.60;;;5.00;;
57249;SDS011;43102;52.014;-0.680;2023-03-11T02:26:07;7.60;;;5.00;;
57249;SDS011;43102;52.014;-0.680;2023-03-11T02:27:04;7.60;;;5.00;;
57249;SDS011;43102;52.014;-0.680;2023-03-11T02:28:03;7.60;;;5.00;;
57249;SDS011;43102;52.014;-0.680;2023-03-11T02:29:02;7.60;;;5.00;;
57249;SDS011;43102;52.014;-0.680;2023-03-11T02:30:01;7.60;;;5.00;;
57249;SDS011;43102;52.014;-0.680;2023-03-11T02:31:01;7.60;;;5.00;;
57249;SDS011;43102;52.014;-0.680;2023-03-11T02:32:03;7.60;;;5.00;;
57249;SDS011;43102;52.014;-0.680;2023-03-11T02:33:01;7.60;;;5.00;;
57249;SDS011;43102;52.014;-0.680;2023-03-11T02:34:01;7.60;;;5.00;;
57249;SDS011;43102;52.014;-0.680;2023-03-11T02:35:00;7.60;;;5.00;;
57249;SDS011;43102;52.014;-0.680;2023-03-11T02:36:00;7.60;;;5.00;;
57249;SDS011;43102;52.014;-0.680;2023-03-11T02:37:03;7.60;;;5.00;;
57249;SDS011;43102;52.014;-0.680;2023-03-11T02:38:00;7.60;;;5.00;;
57249;SDS011;43102;52.014;-0.680;2023-03-11T02:39:01;7.60;;;5.00;;
57249;SDS011;43102;52.014;-0.680;2023-03-11T02:40:30;7.60;;;5.00;;
57249;SDS011;43102;52.014;-0.680;2023-03-11T02:41:01;7.60;;;5.00;;
57249;SDS011;43102;52.014;-0.680;2023-03-11T02:42:09;7.60;;;5.00;;
57249;SDS011;43102;52.014;-0.680;2023-03-11T02:43:02;7.60;;;5.00;;
57249;SDS011;43102;52.014;-0.680;2023-03-11T02:44:01;7.60;;;5.00;;
57249;SDS011;43102;52.014;-0.680;2023-03-11T02:45:07;7.60;;;5.00;;
57249;SDS011;43102;52.014;-0.680;2023-03-11T02:46:00;7.60;;;5.00;;
57249;SDS011;43102;52.014;-0.680;2023-03-11T02:47:01;7.60;;;5.00;;
57249;SDS011;43102;52.014;-0.680;2023-03-11T02:48:00;7.60;;;5.00;;
57249;SDS011;43102;52.014;-0.680;2023-03-11T02:49:01;7.60;;;5.00;;
57249;SDS011;43102;52.014;-0.680;2023-03-11T02:50:00;7.60;;;5.00;;
57249;SDS011;43102;52.014;-0.680;2023-03-11T02:51:01;7.80;;;4.60;;
57249;SDS011;43102;52.014;-0.680;2023-03-11T02:52:00;7.80;;;4.60;;
57249;SDS011;43102;52.014;-0.680;2023-03-11T02:53:00;7.80;;;4.60;;
57249;SDS011;43102;52.014;-0.680;2023-03-11T02:54:03;7.80;;;4.60;;
57249;SDS011;43102;52.014;-0.680;2023-03-11T02:55:01;7.80;;;4.60;;
57249;SDS011;43102;52.014;-0.680;2023-03-11T02:56:00;7.80;;;4.60;;
57249;SDS011;43102;52.014;-0.680;2023-03-11T02:57:00;7.80;;;4.60;;
57249;SDS011;43102;52.014;-0.680;2023-03-11T02:58:01;7.80;;;4.60;;
57249;SDS011;43102;52.014;-0.680;2023-03-11T02:59:00;7.80;;;4.60;;
57249;SDS011;43102;52.014;-0.680;2023-03-11T03:00:08;7.80;;;4.60;;
57249;SDS011;43102;52.014;-0.680;2023-03-11T03:01:00;7.80;;;4.60;;
57249;SDS011;43102;52.014;-0.680;2023-03-11T03:02:00;7.80;;;4.60;;
57249;SDS011;43102;52.014;-0.680;2023-03-11T03:03:00;7.80;;;4.60;;
57249;SDS011;43102;52.014;-0.680;2023-03-11T03:04:00;7.80;;;4.60;;
57249;SDS011;43102;52.014;-0.680;2023-03-11T03:05:00;7.80;;;4.60;;
57249;SDS011;43102;52.014;-0.680;2023-03-11T03:06:00;7.80;;;4.60;;
57249;SDS011;43102;52.014;-0.680;2023-03-11T03:07:00;7.80;;;4.60;;
57249;SDS011;43102;52.014;-0.680;2023-03-11T03:08:01;7.80;;;4.60;;
57249;SDS011;43102;52.014;-0.680;2023-03-11T03:09:00;7.80;;;4.60;;
57249;SDS011;43102;52.014;-0.680;2023-03-11T03:10:00;7.80;;;4.60;;
57249;SDS011;43102;52.014;-0.680;2023-03-11T03:11:02;7.80;;;4.60;;
57249;SDS011;43102;52.014;-0.680;2023-03-11T03:12:00;7.80;;;4.60;;
57249;SDS011;43102;52.014;-0.680;2023-03-11T03:13:00;7.80;;;4.60;;
57249;SDS011;43102;52.014;-0.680;2023-03-11T03:14:00;7.80;;;4.60;;
57249;SDS011;43102;52.014;-0.680;2023-03-11T03:15:00;7.80;;;4.60;;
57249;SDS011;43102;52.014;-0.680;2023-03-11T03:16:01;7.80;;;4.60;;
57249;SDS011;43102;52.014;-0.680;2023-03-11T03:17:00;7.80;;;4.60;;
57249;SDS011;43102;52.014;-0.680;2023-03-11T03:18:00;7.80;;;4.60;;
57249;SDS011;43102;52.014;-0.680;2023-03-11T03:19:00;7.80;;;4.60;;
57249;SDS011;43102;52.014;-0.680;2023-03-11T03:20:00;7.80;;;4.60;;
57249;SDS011;43102;52.014;-0.680;2023-03-11T03:21:00;7.60;;;4.60;;
57249;SDS011;43102;52.014;-0.680;2023-03-11T03:22:00;7.60;;;4.60;;
57249;SDS011;43102;52.014;-0.680;2023-03-11T03:23:01;7.60;;;4.60;;
57249;SDS011;43102;52.014;-0.680;2023-03-11T03:24:00;7.60;;;4.60;;
57249;SDS011;43102;52.014;-0.680;2023-03-11T03:25:00;7.60;;;4.60;;
57249;SDS011;43102;52.014;-0.680;2023-03-11T03:26:01;7.60;;;4.60;;
57249;SDS011;43102;52.014;-0.680;2023-03-11T03:27:01;7.60;;;4.60;;
57249;SDS011;43102;52.014;-0.680;2023-03-11T03:28:00;7.60;;;4.60;;
57249;SDS011;43102;52.014;-0.680;2023-03-11T03:29:00;7.60;;;4.60;;
57249;SDS011;43102;52.014;-0.680;2023-03-11T03:30:00;7.60;;;4.60;;
57249;SDS011;43102;52.014;-0.680;2023-03-11T03:31:05;7.60;;;4.60;;
57249;SDS011;43102;52.014;-0.680;2023-03-11T03:32:00;7.60;;;4.60;;
57249;SDS011;43102;52.014;-0.680;2023-03-11T03:33:00;7.60;;;4.60;;
57249;SDS011;43102;52.014;-0.680;2023-03-11T03:34:00;7.60;;;4.60;;
57249;SDS011;43102;52.014;-0.680;2023-03-11T03:35:00;7.60;;;4.60;;
57249;SDS011;43102;52.014;-0.680;2023-03-11T03:36:01;7.60;;;4.60;;
57249;SDS011;43102;52.014;-0.680;2023-03-11T03:37:00;7.60;;;4.60;;
57249;SDS011;43102;52.014;-0.680;2023-03-11T03:38:01;7.60;;;4.60;;
57249;SDS011;43102;52.014;-0.680;2023-03-11T03:39:00;7.60;;;4.60;;
57249;SDS011;43102;52.014;-0.680;2023-03-11T03:40:00;7.60;;;4.60;;
57249;SDS011;43102;52.014;-0.680;2023-03-11T03:41:00;7.60;;;4.60;;
57249;SDS011;43102;52.014;-0.680;2023-03-11T03:42:00;7.60;;;4.60;;
57249;SDS011;43102;52.014;-0.680;2023-03-11T03:43:00;7.60;;;4.60;;
57249;SDS011;43102;52.014;-0.680;2023-03-11T03:44:00;7.60;;;4.60;;
57249;SDS011;43102;52.014;-0.680;2023-03-11T03:45:00;7.60;;;4.60;;
57249;SDS011;43102;52.014;-0.680;2023-03-11T03:46:03;7.60;;;4.60;;
57249;SDS011;43102;52.014;-0.680;2023-03-11T03:47:00;7.60;;;4.60;;
57249;SDS011;43102;52.014;-0.680;2023-03-11T03:48:00;7.60;;;4.60;;
57249;SDS011;43102;52.014;-0.680;2023-03-11T03:49:00;7.60;;;4.60;;
57249;SDS011;43102;52.014;-0.680;2023-03-11T03:50:01;7.60;;;4.60;;
57249;SDS011;43102;52.014;-0.680;2023-03-11T03:51:04;4.30;;;3.60;;
57249;SDS011;43102;52.014;-0.680;2023-03-11T03:52:00;4.30;;;3.60;;
57249;SDS011;43102;52.014;-0.680;2023-03-11T03:53:00;4.30;;;3.60;;
57249;SDS011;43102;52.014;-0.680;2023-03-11T03:54:00;4.30;;;3.60;;
57249;SDS011;43102;52.014;-0.680;2023-03-11T03:55:00;4.30;;;3.60;;
57249;SDS011;43102;52.014;-0.680;2023-03-11T03:56:03;4.30;;;3.60;;
57249;SDS011;43102;52.014;-0.680;2023-03-11T03:57:01;4.30;;;3.60;;
57249;SDS011;43102;52.014;-0.680;2023-03-11T03:58:00;4.30;;;3.60;;
57249;SDS011;43102;52.014;-0.680;2023-03-11T03:59:00;4.30;;;3.60;;
57249;SDS011;43102;52.014;-0.680;2023-03-11T04:00:00;4.30;;;3.60;;
57249;SDS011;43102;52.014;-0.680;2023-03-11T04:01:00;4.30;;;3.60;;
57249;SDS011;43102;52.014;-0.680;2023-03-11T04:02:00;4.30;;;3.60;;
57249;SDS011;43102;52.014;-0.680;2023-03-11T04:03:00;4.30;;;3.60;;
57249;SDS011;43102;52.014;-0.680;2023-03-11T04:04:00;4.30;;;3.60;;
57249;SDS011;43102;52.014;-0.680;2023-03-11T04:05:00;4.30;;;3.60;;
57249;SDS011;43102;52.014;-0.680;2023-03-11T04:06:14;4.30;;;3.60;;
57249;SDS011;43102;52.014;-0.680;2023-03-11T04:07:04;4.30;;;3.60;;
57249;SDS011;43102;52.014;-0.680;2023-03-11T04:08:00;4.30;;;3.60;;
57249;SDS011;43102;52.014;-0.680;2023-03-11T04:09:00;4.30;;;3.60;;
57249;SDS011;43102;52.014;-0.680;2023-03-11T04:10:00;4.30;;;3.60;;
57249;SDS011;43102;52.014;-0.680;2023-03-11T04:11:00;4.30;;;3.60;;
57249;SDS011;43102;52.014;-0.680;2023-03-11T04:12:00;4.30;;;3.60;;
57249;SDS011;43102;52.014;-0.680;2023-03-11T04:13:00;4.30;;;3.60;;
57249;SDS011;43102;52.014;-0.680;2023-03-11T04:14:01;4.30;;;3.60;;
57249;SDS011;43102;52.014;-0.680;2023-03-11T04:15:00;4.30;;;3.60;;
57249;SDS011;43102;52.014;-0.680;2023-03-11T04:16:02;4.30;;;3.60;;
57249;SDS011;43102;52.014;-0.680;2023-03-11T04:17:00;4.30;;;3.60;;
57249;SDS011;43102;52.014;-0.680;2023-03-11T04:18:00;4.30;;;3.60;;
57249;SDS011;43102;52.014;-0.680;2023-03-11T04:19:00;4.30;;;3.60;;
57249;SDS011;43102;52.014;-0.680;2023-03-11T04:20:00;4.30;;;3.60;;
57249;SDS011;43102;52.014;-0.680;2023-03-11T04:21:04;5.70;;;4.30;;
57249;SDS011;43102;52.014;-0.680;2023-03-11T04:22:00;5.70;;;4.30;;
57249;SDS011;43102;52.014;-0.680;2023-03-11T04:23:00;5.70;;;4.30;;
57249;SDS011;43102;52.014;-0.680;2023-03-11T04:24:00;5.70;;;4.30;;
57249;SDS011;43102;52.014;-0.680;2023-03-11T04:25:01;5.70;;;4.30;;
57249;SDS011;43102;52.014;-0.680;2023-03-11T04:26:00;5.70;;;4.30;;
57249;SDS011;43102;52.014;-0.680;2023-03-11T04:27:00;5.70;;;4.30;;
57249;SDS011;43102;52.014;-0.680;2023-03-11T04:28:00;5.70;;;4.30;;
57249;SDS011;43102;52.014;-0.680;2023-03-11T04:29:00;5.70;;;4.30;;
57249;SDS011;43102;52.014;-0.680;2023-03-11T04:30:00;5.70;;;4.30;;
57249;SDS011;43102;52.014;-0.680;2023-03-11T04:31:00;5.70;;;4.30;;
57249;SDS011;43102;52.014;-0.680;2023-03-11T04:32:00;5.70;;;4.30;;
57249;SDS011;43102;52.014;-0.680;2023-03-11T04:33:00;5.70;;;4.30;;
57249;SDS011;43102;52.014;-0.680;2023-03-11T04:34:00;5.70;;;4.30;;
57249;SDS011;43102;52.014;-0.680;2023-03-11T04:35:00;5.70;;;4.30;;
57249;SDS011;43102;52.014;-0.680;2023-03-11T04:36:04;5.70;;;4.30;;
57249;SDS011;43102;52.014;-0.680;2023-03-11T04:37:00;5.70;;;4.30;;
57249;SDS011;43102;52.014;-0.680;2023-03-11T04:38:00;5.70;;;4.30;;
57249;SDS011;43102;52.014;-0.680;2023-03-11T04:39:00;5.70;;;4.30;;
57249;SDS011;43102;52.014;-0.680;2023-03-11T04:40:00;5.70;;;4.30;;
57249;SDS011;43102;52.014;-0.680;2023-03-11T04:41:01;5.70;;;4.30;;
57249;SDS011;43102;52.014;-0.680;2023-03-11T04:42:03;5.70;;;4.30;;
57249;SDS011;43102;52.014;-0.680;2023-03-11T04:43:00;5.70;;;4.30;;
57249;SDS011;43102;52.014;-0.680;2023-03-11T04:44:00;5.70;;;4.30;;
57249;SDS011;43102;52.014;-0.680;2023-03-11T04:45:00;5.70;;;4.30;;
57249;SDS011;43102;52.014;-0.680;2023-03-11T04:46:00;5.70;;;4.30;;
57249;SDS011;43102;52.014;-0.680;2023-03-11T04:47:00;5.70;;;4.30;;
57249;SDS011;43102;52.014;-0.680;2023-03-11T04:48:00;5.70;;;4.30;;
57249;SDS011;43102;52.014;-0.680;2023-03-11T04:49:00;5.70;;;4.30;;
57249;SDS011;43102;52.014;-0.680;2023-03-11T04:50:00;5.70;;;4.30;;
57249;SDS011;43102;52.014;-0.680;2023-03-11T04:51:00;8.90;;;5.00;;
57249;SDS011;43102;52.014;-0.680;2023-03-11T04:52:00;8.90;;;5.00;;
57249;SDS011;43102;52.014;-0.680;2023-03-11T04:53:00;8.90;;;5.00;;
57249;SDS011;43102;52.014;-0.680;2023-03-11T04:54:00;8.90;;;5.00;;
57249;SDS011;43102;52.014;-0.680;2023-03-11T04:55:00;8.90;;;5.00;;
57249;SDS011;43102;52.014;-0.680;2023-03-11T04:56:00;8.90;;;5.00;;
57249;SDS011;43102;52.014;-0.680;2023-03-11T04:57:00;8.90;;;5.00;;
57249;SDS011;43102;52.014;-0.680;2023-03-11T04:58:00;8.90;;;5.00;;
57249;SDS011;43102;52.014;-0.680;2023-03-11T04:59:00;8.90;;;5.00;;
57249;SDS011;43102;52.014;-0.680;2023-03-11T05:00:00;8.90;;;5.00;;
57249;SDS011;43102;52.014;-0.680;2023-03-11T05:01:00;8.90;;;5.00;;
57249;SDS011;43102;52.014;-0.680;2023-03-11T05:02:00;8.90;;;5.00;;
57249;SDS011;43102;52.014;-0.680;2023-03-11T05:03:00;8.90;;;5.00;;
57249;SDS011;43102;52.014;-0.680;2023-03-11T05:04:00;8.90;;;5.00;;
57249;SDS011;43102;52.014;-0.680;2023-03-11T05:05:00;8.90;;;5.00;;
57249;SDS011;43102;52.014;-0.680;2023-03-11T05:06:00;8.90;;;5.00;;
57249;SDS011;43102;52.014;-0.680;2023-03-11T05:07:00;8.90;;;5.00;;
57249;SDS011;43102;52.014;-0.680;2023-03-11T05:08:00;8.90;;;5.00;;
57249;SDS011;43102;52.014;-0.680;2023-03-11T05:09:00;8.90;;;5.00;;
57249;SDS011;43102;52.014;-0.680;2023-03-11T05:10:00;8.90;;;5.00;;
57249;SDS011;43102;52.014;-0.680;2023-03-11T05:11:00;8.90;;;5.00;;
57249;SDS011;43102;52.014;-0.680;2023-03-11T05:12:00;8.90;;;5.00;;
57249;SDS011;43102;52.014;-0.680;2023-03-11T05:13:00;8.90;;;5.00;;
57249;SDS011;43102;52.014;-0.680;2023-03-11T05:14:00;8.90;;;5.00;;
57249;SDS011;43102;52.014;-0.680;2023-03-11T05:15:00;8.90;;;5.00;;
57249;SDS011;43102;52.014;-0.680;2023-03-11T05:16:00;8.90;;;5.00;;
57249;SDS011;43102;52.014;-0.680;2023-03-11T05:17:00;8.90;;;5.00;;
57249;SDS011;43102;52.014;-0.680;2023-03-11T05:18:00;8.90;;;5.00;;
57249;SDS011;43102;52.014;-0.680;2023-03-11T05:19:00;8.90;;;5.00;;
57249;SDS011;43102;52.014;-0.680;2023-03-11T05:20:00;8.90;;;5.00;;
57249;SDS011;43102;52.014;-0.680;2023-03-11T05:21:00;7.60;;;4.60;;
57249;SDS011;43102;52.014;-0.680;2023-03-11T05:22:01;7.60;;;4.60;;
57249;SDS011;43102;52.014;-0.680;2023-03-11T05:23:00;7.60;;;4.60;;
57249;SDS011;43102;52.014;-0.680;2023-03-11T05:24:00;7.60;;;4.60;;
57249;SDS011;43102;52.014;-0.680;2023-03-11T05:25:00;7.60;;;4.60;;
57249;SDS011;43102;52.014;-0.680;2023-03-11T05:26:00;7.60;;;4.60;;
57249;SDS011;43102;52.014;-0.680;2023-03-11T05:27:01;7.60;;;4.60;;
57249;SDS011;43102;52.014;-0.680;2023-03-11T05:28:00;7.60;;;4.60;;
57249;SDS011;43102;52.014;-0.680;2023-03-11T05:29:00;7.60;;;4.60;;
57249;SDS011;43102;52.014;-0.680;2023-03-11T05:30:00;7.60;;;4.60;;
57249;SDS011;43102;52.014;-0.680;2023-03-11T05:31:00;7.60;;;4.60;;
57249;SDS011;43102;52.014;-0.680;2023-03-11T05:32:00;7.60;;;4.60;;
57249;SDS011;43102;52.014;-0.680;2023-03-11T05:33:00;7.60;;;4.60;;
57249;SDS011;43102;52.014;-0.680;2023-03-11T05:34:00;7.60;;;4.60;;
57249;SDS011;43102;52.014;-0.680;2023-03-11T05:35:04;7.60;;;4.60;;
57249;SDS011;43102;52.014;-0.680;2023-03-11T05:36:09;7.60;;;4.60;;
57249;SDS011;43102;52.014;-0.680;2023-03-11T05:37:03;7.60;;;4.60;;
57249;SDS011;43102;52.014;-0.680;2023-03-11T05:38:00;7.60;;;4.60;;
57249;SDS011;43102;52.014;-0.680;2023-03-11T05:39:00;7.60;;;4.60;;
57249;SDS011;43102;52.014;-0.680;2023-03-11T05:40:00;7.60;;;4.60;;
57249;SDS011;43102;52.014;-0.680;2023-03-11T05:41:00;7.60;;;4.60;;
57249;SDS011;43102;52.014;-0.680;2023-03-11T05:42:00;7.60;;;4.60;;
57249;SDS011;43102;52.014;-0.680;2023-03-11T05:43:00;7.60;;;4.60;;
57249;SDS011;43102;52.014;-0.680;2023-03-11T05:44:00;7.60;;;4.60;;
57249;SDS011;43102;52.014;-0.680;2023-03-11T05:45:00;7.60;;;4.60;;
57249;SDS011;43102;52.014;-0.680;2023-03-11T05:46:00;7.60;;;4.60;;
57249;SDS011;43102;52.014;-0.680;2023-03-11T05:47:00;7.60;;;4.60;;
57249;SDS011;43102;52.014;-0.680;2023-03-11T05:48:00;7.60;;;4.60;;
57249;SDS011;43102;52.014;-0.680;2023-03-11T05:49:01;7.60;;;4.60;;
57249;SDS011;43102;52.014;-0.680;2023-03-11T05:50:00;7.60;;;4.60;;
57249;SDS011;43102;52.014;-0.680;2023-03-11T05:51:00;9.70;;;5.20;;
57249;SDS011;43102;52.014;-0.680;2023-03-11T05:52:00;9.70;;;5.20;;
57249;SDS011;43102;52.014;-0.680;2023-03-11T05:53:00;9.70;;;5.20;;
57249;SDS011;43102;52.014;-0.680;2023-03-11T05:54:00;9.70;;;5.20;;
57249;SDS011;43102;52.014;-0.680;2023-03-11T05:55:00;9.70;;;5.20;;
57249;SDS011;43102;52.014;-0.680;2023-03-11T05:56:01;9.70;;;5.20;;
57249;SDS011;43102;52.014;-0.680;2023-03-11T05:57:00;9.70;;;5.20;;
57249;SDS011;43102;52.014;-0.680;2023-03-11T05:58:01;9.70;;;5.20;;